createdAt,value
2019-05-17T00:01:33.865Z,11.70
2019-05-17T00:04:00.548Z,8.10
2019-05-17T00:06:27.665Z,9.73
2019-05-17T00:08:56.339Z,8.83
2019-05-17T00:11:23.088Z,7.17
2019-05-17T00:13:50.332Z,7.37
2019-05-17T00:16:17.559Z,4.77
2019-05-17T00:18:46.363Z,8.37
2019-05-17T00:21:13.200Z,6.10
2019-05-17T00:23:39.820Z,4.20
2019-05-17T00:26:07.161Z,6.00
2019-05-17T00:28:37.287Z,7.03
2019-05-17T00:31:06.491Z,4.10
2019-05-17T00:33:32.761Z,3.50
2019-05-17T00:35:59.455Z,5.97
2019-05-17T00:38:27.362Z,3.23
2019-05-17T00:40:56.357Z,7.30
2019-05-17T00:43:22.846Z,4.13
2019-05-17T00:45:50.036Z,3.50
2019-05-17T00:48:17.330Z,6.67
2019-05-17T00:50:44.565Z,7.60
2019-05-17T00:53:11.608Z,7.20
2019-05-17T00:55:38.429Z,6.93
2019-05-17T00:58:06.819Z,8.97
2019-05-17T01:00:33.525Z,10.67
2019-05-17T01:03:00.409Z,7.20
2019-05-17T01:05:27.465Z,9.10
2019-05-17T01:07:54.588Z,6.20
2019-05-17T01:10:21.200Z,10.30
2019-05-17T01:12:48.254Z,11.20
2019-05-17T01:15:16.798Z,13.43
2019-05-17T01:17:43.612Z,17.70
2019-05-17T01:20:10.648Z,12.90
2019-05-17T01:22:37.606Z,16.33
2019-05-17T01:25:06.336Z,9.93
2019-05-17T01:27:33.048Z,12.20
2019-05-17T01:29:59.904Z,12.30
2019-05-17T01:32:27.012Z,14.43
2019-05-17T01:34:56.313Z,13.80
2019-05-17T01:37:22.640Z,14.00
2019-05-17T01:39:49.220Z,10.60
2019-05-17T01:42:17.189Z,24.53
2019-05-17T01:44:47.175Z,17.67
2019-05-17T01:47:16.539Z,15.60
2019-05-17T01:49:42.689Z,19.77
2019-05-17T01:52:09.496Z,20.83
2019-05-17T01:54:36.516Z,16.00
2019-05-17T01:57:03.102Z,27.60
2019-05-17T01:59:30.012Z,10.73
2019-05-17T02:02:01.228Z,14.13
2019-05-17T02:04:28.120Z,19.53
2019-05-17T02:06:57.257Z,21.90
2019-05-17T02:09:34.765Z,20.60
2019-05-17T02:11:52.368Z,15.73
2019-05-17T02:14:19.300Z,22.57
2019-05-17T02:16:46.776Z,12.45
2019-05-17T02:19:13.625Z,11.17
2019-05-17T02:21:40.747Z,12.60
2019-05-17T02:24:07.921Z,12.20
2019-05-17T02:26:37.318Z,14.80
2019-05-17T02:29:03.641Z,20.33
2019-05-17T02:31:32.871Z,21.37
2019-05-17T02:34:02.811Z,21.67
2019-05-17T02:36:28.372Z,16.90
2019-05-17T02:38:55.388Z,21.30
2019-05-17T02:41:22.805Z,17.77
2019-05-17T02:43:49.441Z,24.77
2019-05-17T02:46:16.052Z,26.03
2019-05-17T02:48:43.063Z,23.03
2019-05-17T02:51:12.843Z,31.37
2019-05-17T02:53:38.480Z,27.03
2019-05-17T02:56:05.360Z,23.77
2019-05-17T02:58:33.073Z,35.63
2019-05-17T03:01:03.288Z,29.10
2019-05-17T03:03:28.964Z,27.30
2019-05-17T03:05:55.537Z,23.83
2019-05-17T03:08:23.557Z,26.50
2019-05-17T03:10:53.439Z,28.30
2019-05-17T03:13:19.296Z,25.87
2019-05-17T03:15:45.966Z,24.93
2019-05-17T03:18:13.439Z,26.73
2019-05-17T03:20:43.202Z,30.37
2019-05-17T03:23:12.447Z,31.27
2019-05-17T03:25:37.877Z,22.77
2019-05-17T03:28:04.980Z,22.30
2019-05-17T03:30:36.488Z,24.87
2019-05-17T03:33:07.400Z,25.33
2019-05-17T03:35:36.718Z,27.30
2019-05-17T03:38:03.504Z,23.40
2019-05-17T03:40:56.517Z,25.37
2019-05-17T03:42:57.427Z,24.67
2019-05-17T03:45:24.103Z,24.73
2019-05-17T03:47:53.168Z,24.67
2019-05-17T03:50:22.461Z,28.27
2019-05-17T03:52:48.225Z,24.27
2019-05-17T03:55:14.861Z,23.50
2019-05-17T03:57:44.195Z,19.67
2019-05-17T04:00:13.300Z,32.13
2019-05-17T04:02:43.791Z,33.80
2019-05-17T04:05:09.202Z,24.53
2019-05-17T04:07:36.138Z,25.30
2019-05-17T04:10:04.443Z,26.73
2019-05-17T04:12:32.737Z,30.40
2019-05-17T04:15:02.927Z,24.97
2019-05-17T04:17:32.539Z,26.40
2019-05-17T04:19:57.813Z,32.37
2019-05-17T04:22:25.213Z,31.07
2019-05-17T04:24:52.669Z,34.07
2019-05-17T04:27:22.796Z,30.83
2019-05-17T04:29:48.208Z,30.13
2019-05-17T04:32:15.117Z,32.67
2019-05-17T04:34:43.745Z,33.43
2019-05-17T04:37:12.918Z,35.30
2019-05-17T04:39:42.921Z,34.20
2019-05-17T04:42:08.275Z,24.20
2019-05-17T04:44:34.841Z,29.23
2019-05-17T04:47:03.082Z,27.00
2019-05-17T04:49:32.856Z,25.90
2019-05-17T04:51:58.684Z,27.63
2019-05-17T04:54:25.601Z,28.73
2019-05-17T04:56:53.398Z,25.07
2019-05-17T04:59:24.019Z,25.37
2019-05-17T05:01:53.546Z,29.53
2019-05-17T05:04:18.983Z,21.10
2019-05-17T05:06:46.017Z,27.20
2019-05-17T05:09:13.002Z,30.67
2019-05-17T05:11:53.308Z,22.00
2019-05-17T05:14:08.617Z,26.37
2019-05-17T05:16:35.202Z,22.27
2019-05-17T05:19:03.098Z,24.80
2019-05-17T05:21:32.245Z,20.53
2019-05-17T05:23:59.696Z,28.97
2019-05-17T05:26:26.640Z,26.73
2019-05-17T05:28:53.300Z,24.70
2019-05-17T05:31:19.911Z,23.50
2019-05-17T05:33:46.488Z,22.60
2019-05-17T05:36:13.268Z,23.10
2019-05-17T05:38:42.072Z,18.33
2019-05-17T05:41:08.548Z,15.47
2019-05-17T05:43:35.457Z,23.03
2019-05-17T05:46:02.844Z,19.23
2019-05-17T05:48:29.693Z,20.00
2019-05-17T05:50:57.212Z,19.57
2019-05-17T05:53:24.040Z,18.00
2019-05-17T05:55:51.802Z,20.00
2019-05-17T05:58:18.856Z,19.00
2019-05-17T06:00:45.448Z,16.80
2019-05-17T06:03:12.411Z,19.50
2019-05-17T06:05:39.130Z,19.60
2019-05-17T06:08:06.340Z,13.53
2019-05-17T06:10:34.300Z,15.40
2019-05-17T06:13:03.030Z,13.90
2019-05-17T06:15:31.934Z,23.00
2019-05-17T06:17:58.835Z,13.23
2019-05-17T06:20:26.380Z,15.00
2019-05-17T06:22:53.583Z,17.93
2019-05-17T06:25:23.435Z,16.43
2019-05-17T06:27:49.281Z,23.20
2019-05-17T06:30:16.353Z,23.13
2019-05-17T06:32:43.638Z,13.90
2019-05-17T06:35:12.629Z,18.27
2019-05-17T06:37:41.953Z,18.83
2019-05-17T06:40:08.404Z,20.97
2019-05-17T06:42:40.392Z,16.13
2019-05-17T06:45:04.173Z,15.33
2019-05-17T06:47:32.870Z,13.10
2019-05-17T06:49:59.664Z,14.53
2019-05-17T06:52:26.811Z,12.80
2019-05-17T06:54:53.392Z,17.20
2019-05-17T06:57:19.972Z,14.70
2019-05-17T06:59:47.437Z,16.80
2019-05-17T07:02:14.001Z,20.60
2019-05-17T07:04:40.560Z,15.80
2019-05-17T07:07:25.495Z,22.20
2019-05-17T07:09:52.301Z,15.93
2019-05-17T07:12:20.201Z,14.23
2019-05-17T07:14:47.744Z,14.17
2019-05-17T07:17:14.305Z,16.83
2019-05-17T07:19:41.220Z,16.17
2019-05-17T07:22:09.510Z,13.37
2019-05-17T07:24:36.448Z,16.33
2019-05-17T07:27:03.016Z,13.93
2019-05-17T07:29:30.278Z,14.93
2019-05-17T07:31:56.844Z,14.43
2019-05-17T07:34:24.738Z,19.20
2019-05-17T07:36:51.332Z,15.57
2019-05-17T07:39:20.490Z,12.17
2019-05-17T07:41:49.320Z,16.30
2019-05-17T07:44:15.569Z,14.00
2019-05-17T07:46:42.436Z,15.40
2019-05-17T07:49:10.872Z,17.70
2019-05-17T07:51:39.591Z,22.43
2019-05-17T07:54:06.232Z,14.97
2019-05-17T07:56:32.807Z,15.40
2019-05-17T07:59:00.033Z,15.30
2019-05-17T08:01:26.839Z,15.23
2019-05-17T08:03:53.897Z,14.33
2019-05-17T08:06:20.986Z,18.17
2019-05-17T08:08:50.055Z,15.00
2019-05-17T08:11:16.384Z,20.40
2019-05-17T08:13:43.062Z,14.30
2019-05-17T08:16:10.277Z,13.17
2019-05-17T08:18:37.204Z,22.13
2019-05-17T08:21:04.173Z,13.80
2019-05-17T08:23:30.740Z,17.57
2019-05-17T08:26:00.388Z,18.10
2019-05-17T08:28:27.275Z,20.40
2019-05-17T08:30:54.017Z,24.47
2019-05-17T08:33:20.596Z,20.93
2019-05-17T08:35:49.325Z,17.70
2019-05-17T08:38:15.782Z,18.97
2019-05-17T08:40:42.685Z,17.17
2019-05-17T08:43:10.077Z,21.47
2019-05-17T08:45:40.326Z,16.80
2019-05-17T08:48:06.397Z,20.53
2019-05-17T08:50:33.540Z,19.40
2019-05-17T08:53:00.376Z,18.40
2019-05-17T08:55:29.763Z,15.70
2019-05-17T08:57:55.830Z,19.87
2019-05-17T09:00:22.308Z,17.83
2019-05-17T09:02:50.030Z,17.87
2019-05-17T09:05:16.858Z,19.30
2019-05-17T09:07:43.436Z,16.27
2019-05-17T09:10:11.122Z,17.70
2019-05-17T09:12:40.538Z,15.80
2019-05-17T09:15:06.994Z,20.60
2019-05-17T09:17:33.564Z,18.57
2019-05-17T09:20:00.864Z,16.37
2019-05-17T09:22:30.406Z,16.67
2019-05-17T09:24:59.458Z,20.23
2019-05-17T09:27:25.805Z,14.27
2019-05-17T09:29:52.957Z,22.27
2019-05-17T09:32:20.100Z,17.47
2019-05-17T09:34:49.653Z,13.87
2019-05-17T09:37:18.751Z,13.60
2019-05-17T09:39:43.949Z,14.20
2019-05-17T09:42:10.992Z,20.50
2019-05-17T09:44:37.564Z,21.23
2019-05-17T09:47:04.653Z,16.97
2019-05-17T09:49:31.256Z,18.43
2019-05-17T09:52:00.034Z,17.07
2019-05-17T09:54:39.031Z,17.67
2019-05-17T09:56:54.828Z,20.37
2019-05-17T09:59:21.405Z,20.30
2019-05-17T10:01:49.513Z,19.30
2019-05-17T10:04:16.237Z,18.53
2019-05-17T10:06:42.820Z,17.50
2019-05-17T10:09:09.642Z,19.60
2019-05-17T10:11:36.593Z,16.83
2019-05-17T10:14:03.288Z,15.03
2019-05-17T10:16:31.357Z,17.40
2019-05-17T10:19:00.108Z,16.37
2019-05-17T10:21:26.904Z,17.83
2019-05-17T10:23:53.477Z,19.40
2019-05-17T10:26:20.500Z,12.40
2019-05-17T10:28:47.618Z,17.07
2019-05-17T10:31:14.200Z,15.30
2019-05-17T10:33:40.797Z,16.87
2019-05-17T10:36:07.385Z,18.73
2019-05-17T10:38:33.968Z,14.90
2019-05-17T10:41:00.577Z,19.20
2019-05-17T10:43:27.168Z,19.37
2019-05-17T10:45:54.848Z,19.53
2019-05-17T10:48:21.525Z,21.40
2019-05-17T10:50:49.719Z,15.70
2019-05-17T10:53:16.497Z,21.17
2019-05-17T10:55:43.112Z,15.20
2019-05-17T10:58:10.195Z,15.10
2019-05-17T11:00:37.273Z,13.70
2019-05-17T11:03:03.872Z,15.23
2019-05-17T11:05:30.963Z,13.60
2019-05-17T11:07:59.741Z,20.30
2019-05-17T11:10:26.717Z,19.53
2019-05-17T11:12:53.284Z,17.73
2019-05-17T11:15:20.967Z,18.50
2019-05-17T11:17:47.844Z,18.63
2019-05-17T11:20:14.742Z,14.70
2019-05-17T11:22:42.036Z,16.10
2019-05-17T11:25:08.747Z,15.83
2019-05-17T11:27:35.328Z,15.80
2019-05-17T11:30:02.117Z,15.87
2019-05-17T11:32:28.930Z,20.73
2019-05-17T11:34:55.604Z,20.17
2019-05-17T11:37:22.486Z,16.97
2019-05-17T11:39:50.349Z,26.03
2019-05-17T11:42:17.177Z,19.57
2019-05-17T11:44:43.765Z,24.03
2019-05-17T11:47:10.369Z,20.67
2019-05-17T11:49:38.049Z,20.20
2019-05-17T11:52:04.628Z,23.33
2019-05-17T11:54:31.507Z,19.77
2019-05-17T11:56:58.080Z,22.03
2019-05-17T11:59:24.665Z,25.90
2019-05-17T12:01:53.609Z,23.97
2019-05-17T12:04:20.189Z,21.80
2019-05-17T12:06:47.044Z,28.50
2019-05-17T12:09:13.662Z,26.20
2019-05-17T12:11:40.525Z,27.00
2019-05-17T12:14:07.365Z,20.17
2019-05-17T12:16:34.532Z,23.67
2019-05-17T12:19:01.573Z,22.83
2019-05-17T12:21:28.326Z,30.60
2019-05-17T12:23:55.198Z,29.60
2019-05-17T12:26:22.176Z,30.53
2019-05-17T12:28:49.020Z,36.97
2019-05-17T12:31:15.981Z,34.30
2019-05-17T12:33:42.567Z,34.97
2019-05-17T12:36:09.629Z,35.70
2019-05-17T12:38:36.554Z,33.57
2019-05-17T12:41:03.160Z,33.70
2019-05-17T12:43:29.833Z,35.60
2019-05-17T12:46:00.575Z,30.30
2019-05-17T12:48:25.229Z,32.37
2019-05-17T12:50:51.809Z,32.67
2019-05-17T12:53:18.709Z,28.80
2019-05-17T12:55:45.298Z,39.07
2019-05-17T12:58:11.904Z,28.17
2019-05-17T13:00:38.713Z,24.67
2019-05-17T13:03:06.268Z,27.70
2019-05-17T13:05:33.208Z,25.00
2019-05-17T13:08:00.556Z,31.53
2019-05-17T13:10:27.130Z,26.33
2019-05-17T13:12:53.720Z,25.90
2019-05-17T13:15:21.008Z,29.07
2019-05-17T13:17:47.589Z,28.30
2019-05-17T13:20:15.277Z,24.07
2019-05-17T13:22:42.114Z,24.73
2019-05-17T13:25:09.326Z,25.77
2019-05-17T13:27:39.015Z,25.50
2019-05-17T13:30:05.180Z,27.20
2019-05-17T13:32:32.170Z,25.60
2019-05-17T13:34:58.729Z,24.70
2019-05-17T13:37:25.346Z,26.50
2019-05-17T13:39:52.921Z,23.17
2019-05-17T13:42:20.045Z,25.20
2019-05-17T13:44:47.017Z,24.67
2019-05-17T13:47:14.241Z,23.63
2019-05-17T13:49:41.810Z,23.60
2019-05-17T13:52:08.421Z,18.70
2019-05-17T13:54:34.925Z,18.70
2019-05-17T13:57:01.862Z,21.53
2019-05-17T13:59:28.456Z,19.73
2019-05-17T14:01:55.073Z,19.17
2019-05-17T14:04:21.929Z,23.87
2019-05-17T14:06:49.626Z,15.97
2019-05-17T14:09:16.526Z,17.93
2019-05-17T14:11:43.372Z,17.67
2019-05-17T14:14:10.238Z,16.37
2019-05-17T14:16:37.087Z,17.17
2019-05-17T14:19:03.789Z,16.07
2019-05-17T14:21:30.408Z,15.10
2019-05-17T14:23:57.012Z,17.40
2019-05-17T14:26:23.942Z,17.83
2019-05-17T14:28:51.264Z,14.67
2019-05-17T14:31:18.202Z,19.83
2019-05-17T14:33:44.856Z,18.37
2019-05-17T14:36:11.806Z,13.43
2019-05-17T14:38:39.971Z,15.97
2019-05-17T14:41:08.559Z,14.87
2019-05-17T14:43:35.349Z,14.70
2019-05-17T14:46:03.048Z,13.63
2019-05-17T14:48:29.645Z,14.07
2019-05-17T14:50:56.268Z,13.30
2019-05-17T14:53:23.172Z,14.60
2019-05-17T14:55:50.759Z,15.50
2019-05-17T14:58:17.688Z,11.93
2019-05-17T15:00:44.536Z,11.83
2019-05-17T15:03:11.352Z,14.63
2019-05-17T15:05:38.009Z,15.67
2019-05-17T15:08:04.849Z,12.50
2019-05-17T15:10:31.689Z,13.20
2019-05-17T15:13:01.481Z,14.53
2019-05-17T15:15:27.262Z,11.07
2019-05-17T15:17:54.579Z,15.23
2019-05-17T15:20:21.525Z,11.80
2019-05-17T15:22:48.453Z,12.07
2019-05-17T15:25:15.042Z,10.50
2019-05-17T15:27:41.570Z,13.13
2019-05-17T15:30:08.485Z,13.70
2019-05-17T15:32:35.158Z,10.97
2019-05-17T15:35:01.772Z,13.97
2019-05-17T15:37:28.695Z,12.50
2019-05-17T15:39:55.289Z,12.27
2019-05-17T15:42:22.205Z,11.23
2019-05-17T15:44:49.022Z,15.87
2019-05-17T15:47:15.965Z,12.90
2019-05-17T15:49:42.861Z,13.50
2019-05-17T15:52:09.445Z,13.80
2019-05-17T15:54:36.053Z,14.67
2019-05-17T15:57:02.936Z,17.83
2019-05-17T15:59:30.385Z,17.73
2019-05-17T16:01:57.557Z,15.70
2019-05-17T16:04:24.800Z,18.63
2019-05-17T16:06:51.564Z,17.17
2019-05-17T16:09:18.184Z,12.50
2019-05-17T16:11:45.044Z,15.40
2019-05-17T16:14:12.140Z,15.30
2019-05-17T16:16:38.712Z,13.03
2019-05-17T16:19:05.863Z,16.47
2019-05-17T16:21:33.249Z,14.37
2019-05-17T16:24:00.151Z,13.87
2019-05-17T16:26:27.021Z,13.47
2019-05-17T16:28:53.921Z,11.27
2019-05-17T16:31:21.585Z,16.73
2019-05-17T16:33:50.866Z,13.33
2019-05-17T16:36:16.909Z,14.20
2019-05-17T16:38:43.493Z,15.87
2019-05-17T16:41:10.330Z,12.37
2019-05-17T16:43:37.149Z,18.90
2019-05-17T16:46:03.762Z,14.40
2019-05-17T16:48:30.644Z,14.93
2019-05-17T16:50:57.477Z,10.90
2019-05-17T16:53:25.112Z,12.07
2019-05-17T16:55:51.719Z,15.50
2019-05-17T16:58:18.599Z,15.27
2019-05-17T17:00:45.405Z,12.60
2019-05-17T17:03:11.981Z,12.90
2019-05-17T17:05:38.833Z,10.23
2019-05-17T17:08:07.029Z,11.53
2019-05-17T17:10:33.960Z,13.17
2019-05-17T17:13:02.205Z,9.40
2019-05-17T17:15:29.791Z,12.13
2019-05-17T17:17:56.373Z,9.23
2019-05-17T17:20:23.560Z,10.00
2019-05-17T17:22:50.190Z,13.33
2019-05-17T17:25:17.244Z,10.10
2019-05-17T17:27:44.937Z,12.73
2019-05-17T17:30:12.665Z,10.83
2019-05-17T17:32:39.253Z,11.30
2019-05-17T17:35:06.050Z,10.77
2019-05-17T17:37:33.316Z,16.50
2019-05-17T17:40:00.151Z,13.17
2019-05-17T17:42:27.104Z,14.57
2019-05-17T17:44:53.764Z,12.83
2019-05-17T17:47:20.674Z,11.90
2019-05-17T17:49:47.251Z,10.63
2019-05-17T17:52:13.843Z,12.67
2019-05-17T17:54:40.407Z,12.17
2019-05-17T17:57:08.028Z,12.23
2019-05-17T17:59:34.624Z,15.30
2019-05-17T18:02:01.197Z,12.33
2019-05-17T18:04:27.875Z,13.73
2019-05-17T18:06:54.736Z,12.90
2019-05-17T18:09:21.313Z,11.70
2019-05-17T18:11:48.479Z,12.10
2019-05-17T18:14:15.629Z,11.37
2019-05-17T18:16:42.574Z,11.13
2019-05-17T18:19:09.418Z,12.30
2019-05-17T18:21:36.694Z,11.70
2019-05-17T18:24:03.562Z,18.80
2019-05-17T18:26:30.898Z,11.77
2019-05-17T18:28:57.954Z,14.77
2019-05-17T18:31:24.559Z,14.53
2019-05-17T18:33:52.009Z,13.33
2019-05-17T18:36:18.893Z,13.27
2019-05-17T18:38:47.721Z,14.50
2019-05-17T18:41:14.326Z,14.83
2019-05-17T18:43:41.260Z,14.80
2019-05-17T18:46:08.044Z,14.60
2019-05-17T18:48:34.668Z,15.30
2019-05-17T18:51:01.253Z,14.00
2019-05-17T18:53:28.925Z,19.03
2019-05-17T18:55:55.844Z,17.00
2019-05-17T18:58:23.606Z,14.13
2019-05-17T19:00:51.472Z,14.70
2019-05-17T19:03:19.640Z,14.40
2019-05-17T19:05:46.412Z,19.43
2019-05-17T19:08:16.198Z,17.17
2019-05-17T19:10:43.138Z,16.47
2019-05-17T19:13:10.393Z,18.23
2019-05-17T19:15:37.032Z,17.50
2019-05-17T19:18:03.871Z,16.60
2019-05-17T19:20:30.836Z,21.23
2019-05-17T19:22:58.797Z,14.90
2019-05-17T19:25:25.634Z,19.23
2019-05-17T19:27:53.106Z,18.30
2019-05-17T19:30:19.722Z,18.87
2019-05-17T19:32:46.389Z,21.40
2019-05-17T19:35:13.529Z,19.70
2019-05-17T19:37:40.868Z,18.27
2019-05-17T19:40:07.930Z,19.90
2019-05-17T19:42:34.620Z,19.20
2019-05-17T19:45:01.208Z,19.60
2019-05-17T19:47:28.161Z,21.87
2019-05-17T19:49:54.732Z,21.47
2019-05-17T19:52:21.333Z,25.93
2019-05-17T19:54:47.941Z,21.83
2019-05-17T19:57:14.786Z,20.50
2019-05-17T19:59:41.625Z,19.20
2019-05-17T20:02:08.426Z,22.20
2019-05-17T20:04:35.521Z,23.93
2019-05-17T20:07:02.090Z,21.10
2019-05-17T20:09:29.020Z,22.90
2019-05-17T20:11:56.142Z,28.27
2019-05-17T20:14:22.994Z,23.43
2019-05-17T20:16:50.306Z,23.80
2019-05-17T20:19:17.392Z,22.83
2019-05-17T20:21:44.337Z,23.47
2019-05-17T20:24:11.053Z,25.50
2019-05-17T20:26:37.909Z,26.80
2019-05-17T20:29:04.559Z,25.17
2019-05-17T20:31:32.748Z,23.57
2019-05-17T20:33:59.341Z,27.20
2019-05-17T20:36:26.621Z,29.00
2019-05-17T20:38:55.009Z,23.43
2019-05-17T20:41:21.591Z,23.00
2019-05-17T20:43:48.274Z,23.93
2019-05-17T20:46:14.889Z,19.60
2019-05-17T20:48:41.469Z,22.00
2019-05-17T20:51:08.109Z,21.10
2019-05-17T20:53:35.533Z,18.80
2019-05-17T20:56:02.648Z,21.53
2019-05-17T20:58:31.079Z,22.80
2019-05-17T21:00:57.769Z,20.47
2019-05-17T21:03:24.349Z,21.30
2019-05-17T21:05:51.319Z,19.80
2019-05-17T21:08:17.887Z,24.73
2019-05-17T21:10:44.464Z,21.50
2019-05-17T21:13:11.716Z,23.47
2019-05-17T21:15:47.398Z,23.23
2019-05-17T21:18:06.854Z,18.53
2019-05-17T21:20:34.700Z,19.27
2019-05-17T21:23:01.962Z,20.63
2019-05-17T21:25:28.557Z,19.50
2019-05-17T21:27:55.755Z,18.07
2019-05-17T21:30:22.525Z,18.60
2019-05-17T21:32:49.409Z,20.70
2019-05-17T21:35:15.985Z,17.83
2019-05-17T21:37:42.970Z,22.57
2019-05-17T21:40:09.862Z,19.97
2019-05-17T21:42:36.812Z,19.30
2019-05-17T21:45:04.490Z,19.03
2019-05-17T21:47:31.085Z,21.07
2019-05-17T21:49:57.944Z,20.00
2019-05-17T21:52:26.215Z,18.47
2019-05-17T21:54:52.790Z,20.60
2019-05-17T21:57:19.371Z,28.67
2019-05-17T21:59:46.010Z,27.13
2019-05-17T22:02:12.869Z,22.80
2019-05-17T22:04:39.533Z,23.23
2019-05-17T22:07:06.132Z,19.13
2019-05-17T22:09:33.804Z,21.30
2019-05-17T22:12:04.024Z,20.70
2019-05-17T22:14:30.720Z,20.83
2019-05-17T22:16:57.708Z,19.13
2019-05-17T22:19:24.327Z,26.80
2019-05-17T22:21:51.241Z,24.80
2019-05-17T22:24:17.807Z,20.33
2019-05-17T22:26:44.377Z,21.90
2019-05-17T22:29:10.983Z,23.83
2019-05-17T22:31:39.048Z,21.53
2019-05-17T22:34:06.221Z,21.43
2019-05-17T22:36:32.853Z,22.97
2019-05-17T22:38:59.806Z,22.90
2019-05-17T22:41:27.145Z,20.73
2019-05-17T22:43:56.268Z,22.20
2019-05-17T22:46:35.498Z,28.27
2019-05-17T22:48:53.417Z,27.43
2019-05-17T22:51:20.400Z,26.07
2019-05-17T22:53:46.992Z,25.60
2019-05-17T22:56:14.149Z,31.20
2019-05-17T22:58:41.528Z,24.50
2019-05-17T23:01:08.155Z,28.70
2019-05-17T23:03:34.762Z,29.43
2019-05-17T23:06:03.620Z,29.83
2019-05-17T23:08:30.617Z,39.50
2019-05-17T23:10:58.289Z,29.70
2019-05-17T23:13:24.890Z,38.80
2019-05-17T23:16:01.390Z,29.60
2019-05-17T23:18:30.080Z,29.63
2019-05-17T23:20:57.124Z,26.60
2019-05-17T23:23:23.726Z,29.07
2019-05-17T23:25:50.561Z,27.23
2019-05-17T23:28:17.740Z,28.03
2019-05-17T23:30:45.155Z,28.53
2019-05-17T23:33:12.393Z,26.47
2019-05-17T23:35:39.740Z,26.20
2019-05-17T23:38:06.783Z,29.43
2019-05-17T23:40:33.802Z,24.53
2019-05-17T23:43:00.741Z,25.17
2019-05-17T23:45:27.313Z,25.40
2019-05-17T23:47:54.258Z,21.10
2019-05-17T23:50:21.160Z,24.67
2019-05-17T23:52:47.754Z,32.67
2019-05-17T23:55:15.565Z,26.03
2019-05-17T23:57:42.130Z,27.50
